Time;durP1;ratioP1;P1;durP2;ratioP2;P2;SDS_P1;SDS_P2;PMS_P1;PMS_P2;Temp;Humidity;BMP_temperature;BMP_pressure;BME280_temperature;BME280_humidity;BME280_pressure;Samples;Min_cycle;Max_cycle;Signal;HPM_P1;HPM_P2
2022/04/29 00:00:46;;;;;;;9.93;5.28;;;4.30;99.90;;;;;;5047007;28;20032;-77
2022/04/29 00:03:13;;;;;;;7.80;4.85;;;4.30;99.90;;;;;;5057068;28;20025;-77
2022/04/29 00:05:40;;;;;;;8.30;4.30;;;4.20;99.90;;;;;;5057679;28;20029;-77
2022/04/29 00:08:08;;;;;;;9.88;4.63;;;4.10;99.90;;;;;;5057312;28;20112;-77
2022/04/29 00:10:34;;;;;;;10.43;4.57;;;4.10;99.90;;;;;;5057160;28;20017;-77
2022/04/29 00:13:16;;;;;;;8.18;4.45;;;4.00;99.90;;;;;;5056886;28;20029;-76
2022/04/29 00:15:42;;;;;;;11.15;4.80;;;4.00;99.90;;;;;;5056829;28;20056;-77
2022/04/29 00:21:31;;;;;;;6.80;4.53;;;4.00;99.90;;;;;;5038656;28;20416;-76
2022/04/29 00:23:56;;;;;;;10.98;4.57;;;4.00;99.90;;;;;;5038071;28;20025;-77
2022/04/29 00:26:22;;;;;;;11.65;4.78;;;4.10;99.90;;;;;;5037272;28;20392;-77
2022/04/29 00:28:48;;;;;;;8.45;4.47;;;4.00;99.90;;;;;;5036910;28;20461;-77
2022/04/29 00:31:13;;;;;;;7.55;4.55;;;4.00;99.90;;;;;;5037286;28;20539;-77
2022/04/29 00:33:39;;;;;;;9.18;4.57;;;3.90;99.90;;;;;;5037019;28;20022;-77
2022/04/29 00:36:05;;;;;;;10.32;5.03;;;4.10;99.90;;;;;;5036706;28;20475;-77
2022/04/29 00:38:30;;;;;;;9.60;4.90;;;4.10;99.90;;;;;;5035679;28;20032;-77
2022/04/29 00:40:56;;;;;;;10.60;4.82;;;4.10;99.90;;;;;;5036523;28;20028;-77
2022/04/29 00:43:21;;;;;;;9.10;4.63;;;4.10;99.90;;;;;;5035139;28;20024;-77
2022/04/29 00:45:47;;;;;;;10.65;4.70;;;4.20;99.90;;;;;;5036384;28;20025;-78
2022/04/29 00:48:12;;;;;;;8.20;4.32;;;4.30;99.90;;;;;;5039525;28;20027;-77
2022/04/29 00:50:38;;;;;;;12.15;5.30;;;4.40;99.90;;;;;;5056180;28;20048;-77
2022/04/29 00:53:05;;;;;;;9.60;4.50;;;4.40;99.90;;;;;;5056083;28;20029;-77
2022/04/29 00:55:34;;;;;;;7.22;4.38;;;4.40;99.90;;;;;;5038112;28;20090;-77
2022/04/29 00:58:14;;;;;;;5.88;4.03;;;4.50;99.90;;;;;;5054747;28;20616;-76
2022/04/29 01:00:39;;;;;;;10.40;4.07;;;4.60;99.90;;;;;;5056040;28;20021;-77
2022/04/29 01:03:05;;;;;;;13.60;4.80;;;4.60;99.90;;;;;;5055964;28;20132;-76
2022/04/29 01:05:33;;;;;;;11.27;4.80;;;4.50;99.90;;;;;;5055864;28;20025;-77
2022/04/29 01:07:59;;;;;;;8.20;4.55;;;4.50;99.90;;;;;;5056162;28;20025;-76
2022/04/29 01:10:25;;;;;;;8.45;4.55;;;4.50;99.90;;;;;;5043249;28;20026;-76
2022/04/29 01:13:02;;;;;;;7.30;4.35;;;4.60;99.90;;;;;;5036270;28;20116;-77
2022/04/29 01:15:29;;;;;;;9.63;4.03;;;4.50;99.90;;;;;;5035484;28;20485;-78
2022/04/29 01:18:01;;;;;;;10.20;4.93;;;4.60;99.90;;;;;;5043735;28;20021;-77
2022/04/29 01:20:29;;;;;;;8.18;4.15;;;4.60;99.90;;;;;;5035817;28;20085;-77
2022/04/29 01:22:56;;;;;;;8.48;3.78;;;4.60;99.90;;;;;;5043305;28;20110;-76
2022/04/29 01:25:22;;;;;;;8.40;3.83;;;4.60;99.90;;;;;;5055892;28;20497;-76
2022/04/29 01:27:49;;;;;;;7.43;3.65;;;4.60;99.90;;;;;;5055520;28;20754;-76
2022/04/29 01:30:18;;;;;;;11.18;4.55;;;4.70;99.90;;;;;;5055700;28;20456;-78
2022/04/29 01:32:44;;;;;;;4.90;3.35;;;4.60;99.90;;;;;;5055448;28;20017;-76
2022/04/29 01:35:11;;;;;;;6.57;3.65;;;4.70;99.90;;;;;;5055235;28;20481;-77
2022/04/29 01:37:38;;;;;;;9.32;4.47;;;4.70;99.90;;;;;;5055300;28;20978;-77
2022/04/29 01:40:07;;;;;;;6.53;4.03;;;4.70;99.90;;;;;;5055341;28;20032;-76
2022/04/29 01:42:33;;;;;;;9.38;4.20;;;4.70;99.90;;;;;;5055221;28;20025;-77
2022/04/29 01:44:59;;;;;;;9.75;4.82;;;4.70;99.90;;;;;;5055151;28;20464;-77
2022/04/29 01:47:24;;;;;;;8.30;4.50;;;4.60;99.90;;;;;;5044052;28;20033;-76
2022/04/29 01:49:50;;;;;;;7.30;4.47;;;4.70;99.90;;;;;;5035335;28;20023;-77
2022/04/29 01:52:16;;;;;;;8.18;3.97;;;4.70;99.90;;;;;;5035193;28;20018;-77
2022/04/29 01:54:41;;;;;;;9.90;4.50;;;4.60;99.90;;;;;;5034952;28;20029;-77
2022/04/29 01:57:07;;;;;;;6.70;4.10;;;4.60;99.90;;;;;;5034945;28;20033;-76
2022/04/29 01:59:34;;;;;;;10.70;4.80;;;4.60;99.90;;;;;;5034979;28;20469;-77
2022/04/29 02:01:59;;;;;;;10.27;3.97;;;4.60;99.90;;;;;;5034964;28;20018;-77
2022/04/29 02:04:48;;;;;;;10.98;4.78;;;4.60;99.90;;;;;;5034891;28;20468;-76
2022/04/29 02:07:13;;;;;;;9.73;4.22;;;4.70;99.90;;;;;;5034843;28;20029;-77
2022/04/29 02:10:20;;;;;;;7.00;3.85;;;4.70;99.90;;;;;;5034391;28;20028;-77
2022/04/29 02:12:46;;;;;;;8.02;3.92;;;4.70;99.90;;;;;;5035078;28;20033;-77
2022/04/29 02:15:12;;;;;;;9.73;5.22;;;4.70;99.90;;;;;;5034769;28;20059;-77
2022/04/29 02:17:38;;;;;;;5.57;3.53;;;4.70;99.90;;;;;;5034600;28;20033;-77
2022/04/29 02:20:04;;;;;;;7.18;4.15;;;4.80;99.90;;;;;;5034533;28;20025;-76
2022/04/29 02:22:30;;;;;;;9.07;4.35;;;4.80;99.90;;;;;;5044875;28;20025;-76
2022/04/29 02:24:57;;;;;;;9.48;4.03;;;4.80;99.90;;;;;;5054426;28;20017;-76
2022/04/29 02:27:23;;;;;;;9.80;4.75;;;4.80;99.90;;;;;;5054342;28;20052;-76
2022/04/29 02:29:48;;;;;;;10.77;4.25;;;4.60;99.90;;;;;;5054898;28;20057;-77
2022/04/29 02:32:14;;;;;;;8.68;4.30;;;4.50;99.90;;;;;;5054363;28;20469;-77
2022/04/29 02:34:41;;;;;;;7.10;4.20;;;4.50;99.90;;;;;;5036390;28;20495;-77
2022/04/29 02:37:07;;;;;;;10.18;4.97;;;4.50;99.90;;;;;;5054522;28;20048;-76
2022/04/29 02:39:33;;;;;;;6.57;4.28;;;4.40;99.90;;;;;;5054067;28;20092;-78
2022/04/29 02:41:58;;;;;;;7.65;4.75;;;4.40;99.90;;;;;;5054064;28;20025;-78
2022/04/29 02:44:24;;;;;;;8.35;4.47;;;4.40;99.90;;;;;;5054038;28;20435;-77
2022/04/29 02:47:07;;;;;;;6.70;4.25;;;4.40;99.90;;;;;;5054017;28;20021;-77
2022/04/29 02:49:41;;;;;;;7.40;4.43;;;4.40;99.90;;;;;;5054034;28;20025;-77
2022/04/29 02:52:08;;;;;;;10.95;5.35;;;4.40;99.90;;;;;;5054300;28;20070;-77
2022/04/29 02:54:34;;;;;;;8.40;4.63;;;4.40;99.90;;;;;;5053876;28;20017;-76
2022/04/29 02:57:00;;;;;;;5.35;3.60;;;4.30;99.90;;;;;;5053728;28;20380;-77
2022/04/29 02:59:26;;;;;;;6.78;4.15;;;4.40;99.90;;;;;;5053734;28;20025;-78
2022/04/29 03:01:52;;;;;;;7.88;4.43;;;4.50;99.90;;;;;;5053720;28;20040;-77
2022/04/29 03:04:18;;;;;;;8.27;4.72;;;4.50;99.90;;;;;;5054061;28;20361;-77
2022/04/29 03:06:44;;;;;;;8.38;4.65;;;4.50;99.90;;;;;;5053694;28;20037;-77
2022/04/29 03:09:10;;;;;;;7.13;4.57;;;4.50;99.90;;;;;;5053930;28;20468;-77
2022/04/29 03:11:36;;;;;;;9.40;4.78;;;4.50;99.90;;;;;;5053607;28;20029;-77
2022/04/29 03:14:02;;;;;;;8.32;4.55;;;4.50;99.90;;;;;;5053852;28;20025;-77
2022/04/29 03:16:28;;;;;;;10.40;4.93;;;4.30;99.90;;;;;;5053227;28;20064;-76
2022/04/29 03:22:21;;;;;;;7.38;4.50;;;4.20;99.90;;;;;;5033877;28;20491;-77
2022/04/29 03:25:40;;;;;;;8.07;4.88;;;4.20;99.90;;;;;;5033646;28;20036;-77
2022/04/29 03:28:06;;;;;;;10.70;4.97;;;4.20;99.90;;;;;;5034114;28;20049;-77
2022/04/29 03:30:32;;;;;;;10.48;5.30;;;4.20;99.90;;;;;;5033526;28;20029;-77
2022/04/29 03:32:59;;;;;;;13.38;5.50;;;4.10;99.90;;;;;;5033499;28;20480;-77
2022/04/29 03:35:25;;;;;;;9.82;5.10;;;4.10;99.90;;;;;;5033373;28;20025;-77
2022/04/29 03:37:52;;;;;;;8.02;5.25;;;4.20;99.90;;;;;;5033750;28;20108;-77
2022/04/29 03:40:21;;;;;;;8.20;5.60;;;4.30;99.90;;;;;;5033679;28;20029;-77
2022/04/29 03:42:48;;;;;;;10.73;5.40;;;4.30;99.90;;;;;;5033630;28;20021;-77
2022/04/29 03:45:14;;;;;;;10.55;5.28;;;4.40;99.90;;;;;;5033324;28;20057;-77
2022/04/29 03:47:39;;;;;;;9.73;5.43;;;4.40;99.90;;;;;;5033212;28;20119;-77
2022/04/29 03:50:05;;;;;;;8.38;5.22;;;4.50;99.90;;;;;;5032100;28;20017;-77
2022/04/29 03:52:31;;;;;;;11.52;5.70;;;4.60;99.90;;;;;;5033519;28;20123;-77
2022/04/29 03:54:57;;;;;;;15.35;5.45;;;4.70;99.90;;;;;;5033295;28;20104;-77
2022/04/29 03:57:28;;;;;;;9.15;4.60;;;4.70;99.90;;;;;;5033595;28;20030;-77
2022/04/29 03:59:53;;;;;;;10.18;5.30;;;4.80;99.90;;;;;;5049440;28;20091;-77
2022/04/29 04:02:19;;;;;;;9.57;4.88;;;4.80;99.90;;;;;;5053034;28;20021;-77
2022/04/29 04:04:45;;;;;;;10.68;4.80;;;4.80;99.90;;;;;;5053007;28;20411;-77
2022/04/29 04:07:11;;;;;;;10.20;5.15;;;4.80;99.90;;;;;;5053357;28;20021;-77
2022/04/29 04:09:37;;;;;;;11.05;4.85;;;4.80;99.90;;;;;;5052922;28;20067;-77
2022/04/29 04:12:03;;;;;;;8.82;4.40;;;4.80;99.90;;;;;;5051674;28;20447;-78
2022/04/29 04:14:28;;;;;;;8.27;4.40;;;4.70;99.90;;;;;;5052873;28;20033;-77
2022/04/29 04:16:54;;;;;;;11.60;6.03;;;4.80;99.90;;;;;;5052418;28;20053;-77
2022/04/29 04:19:19;;;;;;;8.07;4.72;;;4.70;99.90;;;;;;5052839;28;20632;-77
2022/04/29 04:21:45;;;;;;;8.25;4.80;;;4.70;99.90;;;;;;5053055;28;20457;-77
2022/04/29 04:24:11;;;;;;;8.40;4.90;;;4.70;99.90;;;;;;5052870;28;20025;-77
2022/04/29 04:26:36;;;;;;;7.82;4.80;;;4.80;99.90;;;;;;5052883;28;20025;-78
2022/04/29 04:29:02;;;;;;;8.55;4.88;;;4.80;99.90;;;;;;5052746;28;20025;-77
2022/04/29 04:31:28;;;;;;;10.15;5.40;;;4.70;99.90;;;;;;5053704;28;20490;-77
2022/04/29 04:33:54;;;;;;;7.95;3.97;;;4.60;99.90;;;;;;5039230;28;20021;-77
2022/04/29 04:36:19;;;;;;;8.52;4.60;;;4.60;99.90;;;;;;5055207;28;20388;-77
2022/04/29 04:38:47;;;;;;;9.77;4.85;;;4.70;99.90;;;;;;5056588;28;20024;-77
2022/04/29 04:41:15;;;;;;;6.47;4.22;;;4.70;99.90;;;;;;5056587;28;20063;-77
2022/04/29 04:43:41;;;;;;;10.88;4.82;;;4.70;99.90;;;;;;5056594;28;20017;-77
2022/04/29 04:46:07;;;;;;;8.02;5.10;;;4.90;99.90;;;;;;5056373;28;20457;-77
2022/04/29 04:48:33;;;;;;;10.10;4.97;;;4.90;99.90;;;;;;5056317;28;20021;-77
2022/04/29 04:51:01;;;;;;;9.10;5.20;;;5.00;99.90;;;;;;5056236;28;20053;-77
2022/04/29 04:53:27;;;;;;;8.00;4.80;;;5.10;99.90;;;;;;5056738;28;20013;-77
2022/04/29 04:55:53;;;;;;;7.60;3.67;;;5.20;99.90;;;;;;5056112;28;20036;-77
2022/04/29 04:58:18;;;;;;;9.55;5.55;;;5.20;99.90;;;;;;5056252;28;20033;-77
2022/04/29 05:00:44;;;;;;;7.53;3.70;;;5.20;99.90;;;;;;5056006;28;20025;-77
2022/04/29 05:03:09;;;;;;;7.80;4.80;;;5.30;99.90;;;;;;5056006;28;20021;-77
2022/04/29 05:05:35;;;;;;;6.78;4.00;;;5.30;97.40;;;;;;5055924;28;20021;-77
2022/04/29 05:08:01;;;;;;;9.63;5.22;;;5.40;97.50;;;;;;5056195;28;20025;-76
2022/04/29 05:10:26;;;;;;;8.38;4.80;;;5.40;94.60;;;;;;5055838;28;20032;-77
2022/04/29 05:12:52;;;;;;;9.48;4.50;;;5.50;91.10;;;;;;5037986;28;20028;-77
2022/04/29 05:15:17;;;;;;;7.22;4.60;;;5.60;84.20;;;;;;5055693;28;20037;-77
2022/04/29 05:17:43;;;;;;;8.00;4.63;;;5.70;71.50;;;;;;5055665;28;20025;-77
2022/04/29 05:20:11;;;;;;;7.70;4.65;;;5.80;67.70;;;;;;5055995;28;20099;-77
2022/04/29 05:22:37;;;;;;;8.60;5.22;;;5.90;61.30;;;;;;5055602;28;20523;-77
2022/04/29 05:25:04;;;;;;;10.38;5.30;;;6.10;41.30;;;;;;5055542;28;20081;-77
2022/04/29 05:27:30;;;;;;;10.82;4.95;;;6.30;22.10;;;;;;5037903;28;20042;-77
2022/04/29 05:29:57;;;;;;;7.15;4.72;;;6.40;11.90;;;;;;5055567;28;20021;-77
2022/04/29 05:32:23;;;;;;;7.93;5.32;;;6.50;7.20;;;;;;5037640;28;20017;-77
2022/04/29 05:34:49;;;;;;;9.30;5.13;;;6.60;1.00;;;;;;5055339;28;20067;-77
2022/04/29 05:37:15;;;;;;;11.00;5.72;;;6.80;1.00;;;;;;5055494;28;20082;-79
2022/04/29 05:45:46;;;;;;;12.23;5.47;;;7.50;1.00;;;;;;5055559;28;20032;-79
2022/04/29 05:51:34;;;;;;;9.15;4.85;;;7.60;1.00;;;;;;5055516;28;20112;-79
2022/04/29 05:54:00;;;;;;;8.43;4.45;;;7.60;1.00;;;;;;5054952;28;20052;-79
2022/04/29 05:56:29;;;;;;;12.07;4.80;;;7.70;1.00;;;;;;5055173;28;20025;-79
2022/04/29 05:58:54;;;;;;;10.13;5.43;;;8.00;1.00;;;;;;5054908;28;20111;-79
2022/04/29 06:01:20;;;;;;;11.07;5.43;;;8.20;1.00;;;;;;5054875;28;20100;-79
2022/04/29 06:03:46;;;;;;;9.07;5.20;;;8.60;1.00;;;;;;5054362;28;20028;-79
2022/04/29 06:06:11;;;;;;;10.18;5.03;;;9.00;1.00;;;;;;5053253;28;20494;-79
2022/04/29 06:08:37;;;;;;;8.35;4.90;;;9.20;1.00;;;;;;5052885;28;20425;-79
2022/04/29 06:11:04;;;;;;;7.78;5.30;;;9.20;1.00;;;;;;5033189;28;20021;-79
2022/04/29 06:13:29;;;;;;;8.68;5.13;;;9.30;1.00;;;;;;5053016;28;20017;-79
2022/04/29 06:15:55;;;;;;;11.30;5.55;;;9.40;1.00;;;;;;5053327;28;20416;-80
2022/04/29 06:18:20;;;;;;;10.48;5.18;;;9.60;1.00;;;;;;5053727;28;20487;-80
2022/04/29 06:20:46;;;;;;;10.15;5.63;;;9.70;99.90;;;;;;5054033;28;20021;-79
2022/04/29 06:23:11;;;;;;;6.82;4.63;;;10.00;99.90;;;;;;5053859;28;20021;-79
2022/04/29 06:25:37;;;;;;;6.55;4.20;;;10.00;99.90;;;;;;5054021;28;20033;-80
2022/04/29 06:28:03;;;;;;;11.40;5.05;;;10.60;99.90;;;;;;5054369;28;20017;-78
2022/04/29 06:30:28;;;;;;;7.38;4.40;;;10.80;99.90;;;;;;5036444;28;20037;-79
2022/04/29 06:32:54;;;;;;;7.22;4.10;;;10.90;99.90;;;;;;5054332;28;20107;-78
2022/04/29 06:35:20;;;;;;;7.70;4.55;;;10.90;99.90;;;;;;5054074;28;20078;-79
2022/04/29 06:37:46;;;;;;;7.18;4.60;;;11.00;99.90;;;;;;5054743;28;20059;-79
2022/04/29 06:40:12;;;;;;;6.57;4.72;;;11.90;99.90;;;;;;5054220;28;20057;-78
2022/04/29 06:42:45;;;;;;;5.78;3.88;;;14.30;99.90;;;;;;5054399;28;20029;-78
2022/04/29 06:45:11;;;;;;;7.10;3.72;;;15.10;99.90;;;;;;5054108;28;20024;-79
2022/04/29 06:47:36;;;;;;;6.03;4.60;;;15.30;99.90;;;;;;5053000;28;20563;-79
2022/04/29 06:50:03;;;;;;;7.43;4.18;;;15.60;99.90;;;;;;5053827;28;20092;-79
2022/04/29 06:52:29;;;;;;;5.93;3.60;;;17.20;99.90;;;;;;5054078;28;20025;-79
2022/04/29 06:54:55;;;;;;;5.82;3.83;;;17.40;99.90;;;;;;5053828;28;20353;-79
2022/04/29 06:57:21;;;;;;;6.03;3.47;;;17.70;99.90;;;;;;5053775;28;20036;-79
2022/04/29 06:59:49;;;;;;;5.68;3.90;;;20.30;99.90;;;;;;5054068;28;20028;-79
2022/04/29 07:02:16;;;;;;;5.40;2.75;;;19.90;99.90;;;;;;5054078;28;20023;-80
2022/04/29 07:04:41;;;;;;;4.80;3.50;;;19.40;99.90;;;;;;5054075;28;20021;-79
2022/04/29 07:07:07;;;;;;;6.63;3.38;;;20.40;99.90;;;;;;5035117;28;20025;-80
2022/04/29 07:09:32;;;;;;;4.20;3.28;;;22.20;99.90;;;;;;5051831;28;20369;-80
2022/04/29 07:11:59;;;;;;;4.88;3.08;;;22.00;99.90;;;;;;5052322;28;20060;-80
2022/04/29 07:14:25;;;;;;;4.80;2.67;;;21.50;99.90;;;;;;5036368;28;20017;-80
2022/04/29 07:16:50;;;;;;;5.60;2.80;;;21.20;99.90;;;;;;5062253;28;20060;-79
2022/04/29 07:19:16;;;;;;;3.38;2.35;;;22.40;99.90;;;;;;5054268;28;20036;-80
2022/04/29 07:21:42;;;;;;;5.13;2.60;;;19.10;99.90;;;;;;5053458;28;20016;-80
2022/04/29 07:24:07;;;;;;;5.72;2.72;;;18.50;99.90;;;;;;5052547;28;20380;-80
2022/04/29 07:26:33;;;;;;;3.10;2.28;;;16.50;99.90;;;;;;5053650;28;20036;-80
2022/04/29 07:28:59;;;;;;;6.22;3.33;;;14.60;99.90;;;;;;5052511;28;20021;-80
2022/04/29 07:31:24;;;;;;;5.97;2.53;;;14.30;99.90;;;;;;5053467;28;20383;-80
2022/04/29 07:33:50;;;;;;;4.03;2.10;;;14.20;99.90;;;;;;5053349;28;20029;-80
2022/04/29 07:41:45;;;;;;;2.95;2.15;;;13.00;99.90;;;;;;5022199;28;20044;-80
2022/04/29 07:44:25;;;;;;;3.17;1.55;;;14.10;99.90;;;;;;5050838;28;20013;-80
2022/04/29 07:46:51;;;;;;;1.23;1.10;;;14.00;99.90;;;;;;5051483;28;20100;-80
2022/04/29 07:49:16;;;;;;;5.85;1.52;;;13.80;99.90;;;;;;5052338;28;20064;-80
2022/04/29 07:51:43;;;;;;;3.65;1.45;;;14.20;99.90;;;;;;5052084;28;20017;-80
2022/04/29 07:54:09;;;;;;;3.15;1.63;;;13.90;99.90;;;;;;5052722;28;20017;-80
2022/04/29 07:56:35;;;;;;;4.35;1.40;;;15.20;99.90;;;;;;5052299;28;20392;-80
2022/04/29 07:59:01;;;;;;;4.10;1.83;;;14.90;99.90;;;;;;5052734;28;20025;-80
2022/04/29 08:01:27;;;;;;;3.17;1.80;;;13.50;99.90;;;;;;5050564;28;20048;-80
2022/04/29 08:03:53;;;;;;;2.53;1.95;;;12.90;99.90;;;;;;5046771;28;20024;-80
2022/04/29 08:06:19;;;;;;;3.65;2.10;;;12.90;99.90;;;;;;5053002;28;20037;-80
2022/04/29 08:08:46;;;;;;;4.40;1.85;;;12.60;99.90;;;;;;5055703;28;20025;-79
2022/04/29 08:11:12;;;;;;;4.65;2.00;;;12.10;99.90;;;;;;5056354;28;20472;-80
2022/04/29 08:13:38;;;;;;;4.63;2.08;;;12.00;99.90;;;;;;5056187;28;20492;-80
2022/04/29 08:16:04;;;;;;;4.93;2.17;;;11.70;99.90;;;;;;5055371;28;20087;-79
2022/04/29 08:18:30;;;;;;;4.47;2.72;;;11.60;99.90;;;;;;5056361;28;20108;-79
2022/04/29 08:20:57;;;;;;;5.30;2.45;;;11.50;99.90;;;;;;5055478;28;20186;-79
2022/04/29 08:23:23;;;;;;;4.97;2.30;;;11.20;99.90;;;;;;5057112;28;20372;-79
2022/04/29 08:25:48;;;;;;;4.03;2.10;;;11.20;99.90;;;;;;5053050;28;20032;-80
2022/04/29 08:28:14;;;;;;;4.18;2.20;;;11.30;99.90;;;;;;5056605;28;20480;-79
2022/04/29 08:30:40;;;;;;;3.55;2.25;;;11.40;99.90;;;;;;5056542;28;20017;-80
2022/04/29 08:33:06;;;;;;;3.60;2.20;;;11.20;99.90;;;;;;5056527;28;20490;-79
2022/04/29 08:35:31;;;;;;;3.95;2.45;;;11.30;99.90;;;;;;5056362;28;20029;-80
2022/04/29 08:37:57;;;;;;;1.98;1.42;;;11.10;99.90;;;;;;5058105;28;20033;-78
2022/04/29 08:40:23;;;;;;;2.40;2.03;;;11.00;99.90;;;;;;5087549;28;20016;-79
2022/04/29 08:42:49;;;;;;;5.68;2.25;;;11.20;99.90;;;;;;5076542;28;20040;-79
2022/04/29 08:45:17;;;;;;;2.47;1.48;;;11.10;99.90;;;;;;5045135;28;20030;-79
2022/04/29 08:47:45;;;;;;;4.53;2.05;;;11.10;99.90;;;;;;5037324;28;20369;-80
2022/04/29 08:50:16;;;;;;;3.47;2.20;;;11.00;99.90;;;;;;5060611;28;20029;-79
2022/04/29 08:52:43;;;;;;;3.40;2.28;;;10.70;99.90;;;;;;5057417;28;20170;-79
2022/04/29 09:00:43;;;;;;;3.40;2.25;;;11.30;99.90;;;;;;5056471;28;20035;-78
2022/04/29 09:03:14;;;;;;;3.92;2.70;;;11.30;99.90;;;;;;5056496;28;20025;-79
2022/04/29 09:05:40;;;;;;;;;;;11.40;99.90;;;;;;5056780;28;20029;-79
2022/04/29 09:08:06;;;;;;;2.15;1.95;;;11.80;99.90;;;;;;5038044;28;19908;-79
2022/04/29 09:10:35;;;;;;;2.53;2.10;;;11.70;99.90;;;;;;5055896;28;20051;-79
2022/04/29 09:13:11;;;;;;;3.90;2.50;;;11.50;99.90;;;;;;5055834;28;20540;-79
2022/04/29 09:15:37;;;;;;;4.00;2.75;;;11.80;99.90;;;;;;5041399;28;20425;-79
2022/04/29 09:18:03;;;;;;;4.32;2.35;;;12.00;99.90;;;;;;5042507;28;20021;-79
2022/04/29 09:20:29;;;;;;;4.18;2.92;;;12.00;99.90;;;;;;5042562;28;20029;-79
2022/04/29 09:22:55;;;;;;;4.20;2.75;;;12.40;99.90;;;;;;5036282;28;20021;-79
2022/04/29 09:25:21;;;;;;;3.35;2.95;;;12.10;99.90;;;;;;5035689;28;20362;-79
2022/04/29 09:27:55;;;;;;;3.90;2.40;;;12.10;99.90;;;;;;5035984;28;20021;-79
2022/04/29 09:30:41;;;;;;;3.65;2.10;;;12.40;99.90;;;;;;5035652;28;20017;-79
2022/04/29 09:33:18;;;;;;;2.63;2.25;;;12.90;99.90;;;;;;5044785;28;20039;-79
2022/04/29 09:35:45;;;;;;;2.05;1.83;;;12.90;99.90;;;;;;5055296;28;20079;-79
2022/04/29 09:40:58;;;;;;;3.90;2.13;;;12.90;99.90;;;;;;5055460;28;20124;-79
2022/04/29 09:43:50;;;;;;;2.80;2.55;;;12.40;99.90;;;;;;5052627;28;20098;-79
2022/04/29 09:46:19;;;;;;;5.53;3.33;;;12.60;99.90;;;;;;5032652;28;20038;-80
2022/04/29 09:49:02;;;;;;;4.95;3.28;;;12.50;99.90;;;;;;5034008;28;20029;-79
2022/04/29 09:51:41;;;;;;;4.70;3.30;;;12.70;99.90;;;;;;5035432;28;20048;-80
2022/04/29 09:54:11;;;;;;;3.38;2.15;;;13.40;99.90;;;;;;5035942;28;20071;-79
2022/04/29 09:56:38;;;;;;;4.63;2.40;;;13.20;99.90;;;;;;5055101;28;20021;-79
2022/04/29 09:59:05;;;;;;;4.65;2.50;;;12.60;99.90;;;;;;5047097;28;20045;-80
2022/04/29 10:01:31;;;;;;;3.95;3.17;;;13.10;99.90;;;;;;5033673;28;20032;-80
2022/04/29 10:03:58;;;;;;;6.18;2.88;;;13.10;99.90;;;;;;5034955;28;20516;-79
2022/04/29 10:06:26;;;;;;;5.95;2.58;;;13.00;99.90;;;;;;5034897;28;20025;-84
2022/04/29 10:08:52;;;;;;;1.98;1.83;;;12.90;99.90;;;;;;5035144;28;20096;-79
2022/04/29 10:11:23;;;;;;;3.65;2.78;;;12.40;99.90;;;;;;5034761;28;20096;-80
2022/04/29 10:13:50;;;;;;;5.00;2.85;;;12.30;99.90;;;;;;5035108;28;20045;-80
2022/04/29 10:16:18;;;;;;;5.53;3.13;;;12.60;99.90;;;;;;5046561;28;20060;-79
2022/04/29 10:21:46;;;;;;;3.97;3.03;;;12.70;99.90;;;;;;5054707;28;20032;-78
2022/04/29 10:24:12;;;;;;;3.15;1.95;;;12.90;99.90;;;;;;5054756;28;20381;-79
2022/04/29 10:26:38;;;;;;;8.52;3.20;;;12.70;99.90;;;;;;5054934;28;20104;-80
2022/04/29 10:29:04;;;;;;;6.93;2.92;;;12.40;99.90;;;;;;5054179;28;20033;-80
2022/04/29 10:31:30;;;;;;;2.13;1.52;;;12.10;99.90;;;;;;5054496;28;20041;-80
2022/04/29 10:34:31;;;;;;;3.15;2.60;;;12.00;99.90;;;;;;5053091;28;20025;-79
2022/04/29 10:36:58;;;;;;;4.60;2.97;;;11.70;99.90;;;;;;5041744;28;20078;-80
2022/04/29 10:39:24;;;;;;;4.38;2.42;;;11.70;99.90;;;;;;5054150;28;20092;-80
2022/04/29 10:42:00;;;;;;;4.13;2.97;;;11.90;99.90;;;;;;5054124;28;20025;-80
2022/04/29 10:44:25;;;;;;;3.80;2.00;;;11.50;99.90;;;;;;5054287;28;20017;-80
2022/04/29 10:46:51;;;;;;;3.88;2.75;;;11.40;99.90;;;;;;5053996;28;20025;-80
2022/04/29 10:49:30;;;;;;;3.72;2.35;;;11.50;99.90;;;;;;5046377;28;20372;-80
2022/04/29 10:51:59;;;;;;;3.38;2.65;;;11.50;99.90;;;;;;5034355;28;20026;-80
2022/04/29 10:54:33;;;;;;;8.25;2.70;;;11.60;99.90;;;;;;5050981;28;20025;-80
2022/04/29 10:57:02;;;;;;;4.30;2.78;;;11.70;99.90;;;;;;5054801;28;20040;-80
2022/04/29 10:59:47;;;;;;;3.38;2.15;;;11.90;99.90;;;;;;5054261;28;20025;-80
2022/04/29 11:02:23;;;;;;;4.00;2.97;;;12.00;99.90;;;;;;5053789;28;20036;-79
2022/04/29 11:04:50;;;;;;;2.95;1.90;;;12.20;99.90;;;;;;5053805;28;20829;-79
2022/04/29 11:07:42;;;;;;;2.58;1.80;;;12.40;99.90;;;;;;5038246;28;20026;-80
2022/04/29 11:10:19;;;;;;;4.20;2.67;;;12.60;99.90;;;;;;5033824;28;20397;-80
2022/04/29 11:13:00;;;;;;;2.42;1.63;;;12.20;99.90;;;;;;5036229;28;20030;-80
2022/04/29 11:15:44;;;;;;;4.15;1.98;;;12.20;99.90;;;;;;5053410;28;20021;-80
2022/04/29 11:18:28;;;;;;;2.92;2.15;;;11.70;99.90;;;;;;5054039;28;20039;-81
2022/04/29 11:20:56;;;;;;;2.97;1.98;;;12.10;99.90;;;;;;5053622;28;20025;-81
2022/04/29 11:26:12;;;;;;;4.53;2.60;;;12.00;99.90;;;;;;5052577;28;20047;-79
2022/04/29 11:28:38;;;;;;;5.32;3.05;;;12.30;99.90;;;;;;5035413;28;20025;-79
2022/04/29 11:31:08;;;;;;;3.83;2.55;;;12.30;99.90;;;;;;5052801;28;20044;-81
2022/04/29 11:33:34;;;;;;;;;;;12.40;99.90;;;;;;5036299;28;20123;-80
2022/04/29 11:36:03;;;;;;;5.20;2.92;;;12.40;99.90;;;;;;5053330;28;20067;-80
2022/04/29 11:38:31;;;;;;;4.35;2.50;;;12.30;99.90;;;;;;5053673;28;20522;-80
2022/04/29 11:40:58;;;;;;;8.73;3.42;;;12.10;99.90;;;;;;5053402;28;20472;-80
2022/04/29 11:43:24;;;;;;;4.25;2.42;;;11.90;99.90;;;;;;5053559;28;20079;-80
2022/04/29 11:45:59;;;;;;;3.33;2.55;;;12.00;99.90;;;;;;5053676;28;20037;-80
2022/04/29 11:48:25;;;;;;;3.67;2.10;;;11.80;99.90;;;;;;5053470;28;20025;-81
2022/04/29 11:50:51;;;;;;;3.50;2.45;;;12.20;99.90;;;;;;5053318;28;20024;-83
2022/04/29 11:53:17;;;;;;;2.08;1.98;;;12.10;99.90;;;;;;5053470;28;20079;-79
2022/04/29 11:55:49;;;;;;;4.28;2.00;;;11.90;99.90;;;;;;5053845;28;20459;-85
2022/04/29 11:58:16;;;;;;;1.40;1.30;;;11.60;99.90;;;;;;5057965;28;20083;-85
2022/04/29 12:00:49;;;;;;;3.78;1.83;;;11.80;99.90;;;;;;5059236;28;20043;-84
2022/04/29 12:03:19;;;;;;;4.82;2.50;;;11.80;99.90;;;;;;5026662;28;20025;-85
2022/04/29 12:05:48;;;;;;;5.78;2.83;;;11.50;99.90;;;;;;5024155;28;20058;-84
2022/04/29 12:08:14;;;;;;;3.35;3.00;;;11.50;99.90;;;;;;5060621;28;20043;-84
2022/04/29 12:10:44;;;;;;;5.70;2.60;;;11.50;99.90;;;;;;5059551;28;20305;-83
2022/04/29 12:13:09;;;;;;;5.45;2.38;;;11.40;99.90;;;;;;5035865;28;20412;-84
2022/04/29 12:15:37;;;;;;;3.38;2.53;;;11.40;99.90;;;;;;5033599;28;20109;-84
2022/04/29 12:18:08;;;;;;;4.93;2.80;;;11.30;99.90;;;;;;5017222;28;20029;-83
2022/04/29 12:20:34;;;;;;;2.28;1.73;;;11.40;99.90;;;;;;5032907;28;20026;-83
2022/04/29 12:23:22;;;;;;;3.13;2.22;;;11.70;99.90;;;;;;5033173;28;20076;-80
2022/04/29 12:25:48;;;;;;;3.33;2.75;;;12.10;99.90;;;;;;5032259;28;20542;-80
2022/04/29 12:28:16;;;;;;;3.65;2.90;;;12.10;99.90;;;;;;5053110;28;20022;-80
2022/04/29 12:37:10;;;;;;;3.03;2.20;;;12.80;99.90;;;;;;5048044;28;20542;-81
2022/04/29 12:39:43;;;;;;;9.07;3.05;;;12.40;99.90;;;;;;5050031;28;20033;-81
2022/04/29 12:42:12;;;;;;;4.90;2.55;;;12.20;99.90;;;;;;5051874;28;20099;-81
2022/04/29 12:47:54;;;;;;;5.13;2.67;;;12.80;99.90;;;;;;5033212;28;20060;-81
2022/04/29 12:50:31;;;;;;;5.53;2.70;;;12.80;99.90;;;;;;5032930;28;20033;-80
2022/04/29 12:53:09;;;;;;;3.38;2.40;;;12.40;99.90;;;;;;5034731;28;20036;-81
2022/04/29 12:55:47;;;;;;;2.67;1.67;;;12.40;99.90;;;;;;5037133;28;20022;-80
2022/04/29 12:58:21;;;;;;;5.13;2.30;;;12.30;99.90;;;;;;5018429;28;20030;-80
2022/04/29 13:00:54;;;;;;;2.78;2.20;;;12.60;99.90;;;;;;5036422;28;20017;-80
2022/04/29 13:03:22;;;;;;;3.65;2.50;;;12.50;99.90;;;;;;5036292;28;20036;-80
2022/04/29 13:05:48;;;;;;;2.17;1.98;;;12.60;99.90;;;;;;5018340;28;20029;-80
2022/04/29 13:08:14;;;;;;;1.77;1.52;;;12.30;99.90;;;;;;5018613;28;20029;-81
2022/04/29 13:10:51;;;;;;;2.83;1.75;;;11.90;99.90;;;;;;5036159;28;20105;-80
2022/04/29 13:13:19;;;;;;;5.18;2.50;;;12.10;99.90;;;;;;5036171;28;20033;-81
2022/04/29 13:15:44;;;;;;;2.13;1.92;;;12.20;99.90;;;;;;5035564;28;20535;-81
2022/04/29 13:18:14;;;;;;;4.72;2.38;;;12.20;99.90;;;;;;5035725;28;20084;-80
2022/04/29 13:20:39;;;;;;;6.13;2.03;;;12.40;99.90;;;;;;5035660;28;20056;-80
2022/04/29 13:23:05;;;;;;;6.03;2.35;;;12.50;99.90;;;;;;5043675;28;20496;-81
2022/04/29 13:25:35;;;;;;;3.72;2.47;;;12.70;99.90;;;;;;5054279;28;20029;-81
2022/04/29 13:28:01;;;;;;;4.45;2.70;;;12.50;99.90;;;;;;5054449;28;20056;-81
2022/04/29 13:30:27;;;;;;;3.70;1.95;;;12.50;99.90;;;;;;5055580;28;20099;-82
2022/04/29 13:32:53;;;;;;;3.83;2.60;;;12.80;99.90;;;;;;5054334;28;20451;-82
2022/04/29 13:35:19;;;;;;;3.60;2.20;;;13.30;99.90;;;;;;5037713;28;20075;-81
2022/04/29 13:37:44;;;;;;;4.20;2.03;;;13.30;99.90;;;;;;5054775;28;20031;-81
2022/04/29 13:40:11;;;;;;;2.03;1.60;;;13.20;99.90;;;;;;5055539;28;20025;-82